sensor_id;sensor_type;location;lat;lon;timestamp;P1;durP1;ratioP1;P2;durP2;ratioP2
33184;SDS011;19550;42.872;25.494;2023-11-19T00:02:25;2.90;;;2.05;;
33184;SDS011;19550;42.872;25.494;2023-11-19T00:04:52;2.15;;;1.60;;
33184;SDS011;19550;42.872;25.494;2023-11-19T00:07:19;2.40;;;2.00;;
33184;SDS011;19550;42.872;25.494;2023-11-19T00:09:47;4.15;;;2.35;;
33184;SDS011;19550;42.872;25.494;2023-11-19T00:12:15;5.38;;;2.75;;
33184;SDS011;19550;42.872;25.494;2023-11-19T00:14:41;3.53;;;2.55;;
33184;SDS011;19550;42.872;25.494;2023-11-19T00:17:09;2.80;;;2.47;;
33184;SDS011;19550;42.872;25.494;2023-11-19T00:19:36;4.10;;;2.90;;
33184;SDS011;19550;42.872;25.494;2023-11-19T00:22:03;4.43;;;3.45;;
33184;SDS011;19550;42.872;25.494;2023-11-19T00:24:29;4.57;;;3.08;;
33184;SDS011;19550;42.872;25.494;2023-11-19T00:26:58;5.55;;;3.20;;
33184;SDS011;19550;42.872;25.494;2023-11-19T00:29:25;3.72;;;2.70;;
33184;SDS011;19550;42.872;25.494;2023-11-19T00:31:51;4.25;;;2.70;;
33184;SDS011;19550;42.872;25.494;2023-11-19T00:34:18;4.05;;;2.92;;
33184;SDS011;19550;42.872;25.494;2023-11-19T00:36:47;3.47;;;2.90;;
33184;SDS011;19550;42.872;25.494;2023-11-19T00:39:14;4.18;;;3.03;;
33184;SDS011;19550;42.872;25.494;2023-11-19T00:41:42;4.68;;;2.95;;
33184;SDS011;19550;42.872;25.494;2023-11-19T00:44:12;4.75;;;3.15;;
33184;SDS011;19550;42.872;25.494;2023-11-19T00:46:39;3.78;;;2.80;;
33184;SDS011;19550;42.872;25.494;2023-11-19T00:49:06;3.45;;;2.53;;
33184;SDS011;19550;42.872;25.494;2023-11-19T00:51:32;4.05;;;2.85;;
33184;SDS011;19550;42.872;25.494;2023-11-19T00:53:59;4.70;;;3.47;;
33184;SDS011;19550;42.872;25.494;2023-11-19T00:56:27;4.65;;;2.72;;
33184;SDS011;19550;42.872;25.494;2023-11-19T00:58:54;4.28;;;2.92;;
33184;SDS011;19550;42.872;25.494;2023-11-19T01:01:22;3.47;;;2.83;;
33184;SDS011;19550;42.872;25.494;2023-11-19T01:03:49;4.07;;;3.03;;
33184;SDS011;19550;42.872;25.494;2023-11-19T01:06:26;5.13;;;3.53;;
33184;SDS011;19550;42.872;25.494;2023-11-19T01:08:53;5.18;;;3.40;;
33184;SDS011;19550;42.872;25.494;2023-11-19T01:11:22;3.63;;;2.75;;
33184;SDS011;19550;42.872;25.494;2023-11-19T01:13:49;3.88;;;2.92;;
33184;SDS011;19550;42.872;25.494;2023-11-19T01:16:16;6.13;;;3.28;;
33184;SDS011;19550;42.872;25.494;2023-11-19T01:18:46;5.28;;;3.40;;
33184;SDS011;19550;42.872;25.494;2023-11-19T01:21:13;4.00;;;2.88;;
33184;SDS011;19550;42.872;25.494;2023-11-19T01:23:40;4.88;;;3.33;;
33184;SDS011;19550;42.872;25.494;2023-11-19T01:26:08;5.57;;;3.65;;
33184;SDS011;19550;42.872;25.494;2023-11-19T01:28:37;4.93;;;3.58;;
33184;SDS011;19550;42.872;25.494;2023-11-19T01:31:04;5.40;;;3.92;;
33184;SDS011;19550;42.872;25.494;2023-11-19T01:33:33;4.03;;;3.03;;
33184;SDS011;19550;42.872;25.494;2023-11-19T01:36:03;6.35;;;2.90;;
33184;SDS011;19550;42.872;25.494;2023-11-19T01:38:31;4.75;;;3.17;;
33184;SDS011;19550;42.872;25.494;2023-11-19T01:40:57;3.83;;;2.85;;
33184;SDS011;19550;42.872;25.494;2023-11-19T01:43:30;4.38;;;3.30;;
33184;SDS011;19550;42.872;25.494;2023-11-19T01:45:58;3.85;;;2.80;;
33184;SDS011;19550;42.872;25.494;2023-11-19T01:48:25;3.63;;;2.95;;
33184;SDS011;19550;42.872;25.494;2023-11-19T01:50:52;4.15;;;3.00;;
33184;SDS011;19550;42.872;25.494;2023-11-19T01:53:20;5.55;;;3.22;;
33184;SDS011;19550;42.872;25.494;2023-11-19T01:55:47;5.25;;;3.28;;
33184;SDS011;19550;42.872;25.494;2023-11-19T01:58:15;4.13;;;2.80;;
33184;SDS011;19550;42.872;25.494;2023-11-19T02:00:44;6.85;;;3.50;;
33184;SDS011;19550;42.872;25.494;2023-11-19T02:03:11;4.57;;;3.28;;
33184;SDS011;19550;42.872;25.494;2023-11-19T02:05:39;4.63;;;3.28;;
33184;SDS011;19550;42.872;25.494;2023-11-19T02:08:06;5.05;;;3.20;;
33184;SDS011;19550;42.872;25.494;2023-11-19T02:10:34;4.03;;;3.10;;
33184;SDS011;19550;42.872;25.494;2023-11-19T02:13:01;3.80;;;2.83;;
33184;SDS011;19550;42.872;25.494;2023-11-19T02:15:30;4.15;;;3.08;;
33184;SDS011;19550;42.872;25.494;2023-11-19T02:17:57;4.80;;;3.10;;
33184;SDS011;19550;42.872;25.494;2023-11-19T02:20:43;4.75;;;3.17;;
33184;SDS011;19550;42.872;25.494;2023-11-19T02:23:10;5.90;;;3.67;;
33184;SDS011;19550;42.872;25.494;2023-11-19T02:25:39;5.30;;;3.25;;
33184;SDS011;19550;42.872;25.494;2023-11-19T02:28:08;5.63;;;2.85;;
33184;SDS011;19550;42.872;25.494;2023-11-19T02:30:37;3.90;;;2.95;;
33184;SDS011;19550;42.872;25.494;2023-11-19T02:33:04;4.60;;;2.95;;
33184;SDS011;19550;42.872;25.494;2023-11-19T02:35:31;5.82;;;3.75;;
33184;SDS011;19550;42.872;25.494;2023-11-19T02:37:59;4.75;;;3.53;;
33184;SDS011;19550;42.872;25.494;2023-11-19T02:40:26;4.30;;;3.20;;
33184;SDS011;19550;42.872;25.494;2023-11-19T02:42:52;5.03;;;3.28;;
33184;SDS011;19550;42.872;25.494;2023-11-19T02:45:22;4.40;;;3.17;;
33184;SDS011;19550;42.872;25.494;2023-11-19T02:47:50;4.97;;;3.05;;
33184;SDS011;19550;42.872;25.494;2023-11-19T02:50:17;4.30;;;3.13;;
33184;SDS011;19550;42.872;25.494;2023-11-19T02:52:51;4.47;;;2.97;;
33184;SDS011;19550;42.872;25.494;2023-11-19T02:55:18;6.20;;;3.35;;
33184;SDS011;19550;42.872;25.494;2023-11-19T02:57:46;5.40;;;3.45;;
33184;SDS011;19550;42.872;25.494;2023-11-19T03:00:14;5.25;;;3.22;;
33184;SDS011;19550;42.872;25.494;2023-11-19T03:02:43;5.25;;;3.42;;
33184;SDS011;19550;42.872;25.494;2023-11-19T03:05:12;4.35;;;3.45;;
33184;SDS011;19550;42.872;25.494;2023-11-19T03:07:40;5.82;;;3.50;;
33184;SDS011;19550;42.872;25.494;2023-11-19T03:10:09;5.05;;;3.10;;
33184;SDS011;19550;42.872;25.494;2023-11-19T03:12:38;4.47;;;3.35;;
33184;SDS011;19550;42.872;25.494;2023-11-19T03:15:06;6.93;;;3.60;;
33184;SDS011;19550;42.872;25.494;2023-11-19T03:17:35;6.80;;;3.55;;
33184;SDS011;19550;42.872;25.494;2023-11-19T03:20:04;4.25;;;3.03;;
33184;SDS011;19550;42.872;25.494;2023-11-19T03:22:35;5.55;;;3.60;;
33184;SDS011;19550;42.872;25.494;2023-11-19T03:25:03;5.55;;;3.53;;
33184;SDS011;19550;42.872;25.494;2023-11-19T03:27:33;7.07;;;3.53;;
33184;SDS011;19550;42.872;25.494;2023-11-19T03:30:01;5.75;;;3.55;;
33184;SDS011;19550;42.872;25.494;2023-11-19T03:32:28;7.65;;;4.15;;
33184;SDS011;19550;42.872;25.494;2023-11-19T03:34:55;6.80;;;3.90;;
33184;SDS011;19550;42.872;25.494;2023-11-19T03:37:24;4.82;;;3.40;;
33184;SDS011;19550;42.872;25.494;2023-11-19T03:39:51;6.53;;;3.60;;
33184;SDS011;19550;42.872;25.494;2023-11-19T03:42:19;6.88;;;3.70;;
33184;SDS011;19550;42.872;25.494;2023-11-19T03:44:47;5.50;;;3.72;;
33184;SDS011;19550;42.872;25.494;2023-11-19T03:47:14;6.10;;;4.15;;
33184;SDS011;19550;42.872;25.494;2023-11-19T03:49:41;5.20;;;3.80;;
33184;SDS011;19550;42.872;25.494;2023-11-19T03:52:09;7.35;;;3.92;;
33184;SDS011;19550;42.872;25.494;2023-11-19T03:54:37;5.32;;;3.63;;
33184;SDS011;19550;42.872;25.494;2023-11-19T03:57:04;8.35;;;3.78;;
33184;SDS011;19550;42.872;25.494;2023-11-19T03:59:31;4.68;;;3.50;;
33184;SDS011;19550;42.872;25.494;2023-11-19T04:01:58;4.88;;;3.70;;
33184;SDS011;19550;42.872;25.494;2023-11-19T04:04:27;5.88;;;3.85;;
33184;SDS011;19550;42.872;25.494;2023-11-19T04:06:55;5.97;;;3.88;;
33184;SDS011;19550;42.872;25.494;2023-11-19T04:09:23;4.05;;;2.33;;
33184;SDS011;19550;42.872;25.494;2023-11-19T04:11:51;6.00;;;3.92;;
33184;SDS011;19550;42.872;25.494;2023-11-19T04:14:18;5.50;;;3.80;;
33184;SDS011;19550;42.872;25.494;2023-11-19T04:16:45;6.10;;;3.65;;
33184;SDS011;19550;42.872;25.494;2023-11-19T04:19:12;5.10;;;3.75;;
33184;SDS011;19550;42.872;25.494;2023-11-19T04:21:39;9.20;;;5.07;;
33184;SDS011;19550;42.872;25.494;2023-11-19T04:24:08;6.80;;;4.10;;
33184;SDS011;19550;42.872;25.494;2023-11-19T04:26:39;7.07;;;3.88;;
33184;SDS011;19550;42.872;25.494;2023-11-19T04:29:08;6.15;;;3.80;;
33184;SDS011;19550;42.872;25.494;2023-11-19T04:31:36;7.22;;;3.78;;
33184;SDS011;19550;42.872;25.494;2023-11-19T04:34:03;7.10;;;4.20;;
33184;SDS011;19550;42.872;25.494;2023-11-19T04:36:30;4.82;;;3.80;;
33184;SDS011;19550;42.872;25.494;2023-11-19T04:38:58;6.05;;;4.03;;
33184;SDS011;19550;42.872;25.494;2023-11-19T04:41:25;5.38;;;3.88;;
33184;SDS011;19550;42.872;25.494;2023-11-19T04:43:52;6.75;;;4.28;;
33184;SDS011;19550;42.872;25.494;2023-11-19T04:46:21;4.32;;;3.25;;
33184;SDS011;19550;42.872;25.494;2023-11-19T04:48:48;5.78;;;3.88;;
33184;SDS011;19550;42.872;25.494;2023-11-19T04:51:15;5.75;;;3.90;;
33184;SDS011;19550;42.872;25.494;2023-11-19T04:53:43;6.60;;;3.65;;
33184;SDS011;19550;42.872;25.494;2023-11-19T04:56:10;5.93;;;4.03;;
33184;SDS011;19550;42.872;25.494;2023-11-19T04:58:38;6.95;;;4.25;;
33184;SDS011;19550;42.872;25.494;2023-11-19T05:01:05;5.70;;;4.43;;
33184;SDS011;19550;42.872;25.494;2023-11-19T05:03:33;6.60;;;4.55;;
33184;SDS011;19550;42.872;25.494;2023-11-19T05:06:01;6.23;;;4.60;;
33184;SDS011;19550;42.872;25.494;2023-11-19T05:08:28;5.88;;;4.10;;
33184;SDS011;19550;42.872;25.494;2023-11-19T05:10:55;5.03;;;3.80;;
33184;SDS011;19550;42.872;25.494;2023-11-19T05:13:22;4.68;;;3.58;;
33184;SDS011;19550;42.872;25.494;2023-11-19T05:15:49;8.40;;;4.70;;
33184;SDS011;19550;42.872;25.494;2023-11-19T05:18:16;6.10;;;3.88;;
33184;SDS011;19550;42.872;25.494;2023-11-19T05:20:45;5.82;;;4.18;;
33184;SDS011;19550;42.872;25.494;2023-11-19T05:23:12;7.07;;;4.60;;
33184;SDS011;19550;42.872;25.494;2023-11-19T05:25:38;6.43;;;4.50;;
33184;SDS011;19550;42.872;25.494;2023-11-19T05:28:05;26.60;;;5.60;;
33184;SDS011;19550;42.872;25.494;2023-11-19T05:30:33;7.60;;;4.95;;
33184;SDS011;19550;42.872;25.494;2023-11-19T05:33:00;6.18;;;4.32;;
33184;SDS011;19550;42.872;25.494;2023-11-19T05:35:27;7.72;;;4.03;;
33184;SDS011;19550;42.872;25.494;2023-11-19T05:37:55;6.75;;;4.43;;
33184;SDS011;19550;42.872;25.494;2023-11-19T05:40:22;8.68;;;4.53;;
33184;SDS011;19550;42.872;25.494;2023-11-19T05:42:48;6.18;;;4.80;;
33184;SDS011;19550;42.872;25.494;2023-11-19T05:45:15;8.68;;;4.82;;
33184;SDS011;19550;42.872;25.494;2023-11-19T05:47:42;7.57;;;4.70;;
33184;SDS011;19550;42.872;25.494;2023-11-19T05:50:10;8.07;;;4.40;;
33184;SDS011;19550;42.872;25.494;2023-11-19T05:52:40;6.80;;;4.00;;
33184;SDS011;19550;42.872;25.494;2023-11-19T05:55:09;6.57;;;4.38;;
33184;SDS011;19550;42.872;25.494;2023-11-19T05:57:36;10.48;;;7.78;;
33184;SDS011;19550;42.872;25.494;2023-11-19T06:00:03;10.77;;;5.45;;
33184;SDS011;19550;42.872;25.494;2023-11-19T06:02:33;7.60;;;4.35;;
33184;SDS011;19550;42.872;25.494;2023-11-19T06:05:02;8.15;;;4.70;;
33184;SDS011;19550;42.872;25.494;2023-11-19T06:07:30;5.68;;;4.25;;
33184;SDS011;19550;42.872;25.494;2023-11-19T06:10:01;7.18;;;5.07;;
33184;SDS011;19550;42.872;25.494;2023-11-19T06:12:29;7.45;;;5.43;;
33184;SDS011;19550;42.872;25.494;2023-11-19T06:14:57;7.85;;;5.05;;
33184;SDS011;19550;42.872;25.494;2023-11-19T06:17:24;7.13;;;5.00;;
33184;SDS011;19550;42.872;25.494;2023-11-19T06:19:50;7.57;;;5.32;;
33184;SDS011;19550;42.872;25.494;2023-11-19T06:22:18;6.68;;;5.05;;
33184;SDS011;19550;42.872;25.494;2023-11-19T06:24:45;6.82;;;4.80;;
33184;SDS011;19550;42.872;25.494;2023-11-19T06:27:12;7.60;;;5.28;;
33184;SDS011;19550;42.872;25.494;2023-11-19T06:29:43;11.68;;;7.75;;
33184;SDS011;19550;42.872;25.494;2023-11-19T06:32:10;8.18;;;5.57;;
33184;SDS011;19550;42.872;25.494;2023-11-19T06:34:37;7.38;;;5.00;;
33184;SDS011;19550;42.872;25.494;2023-11-19T06:37:04;9.32;;;6.07;;
33184;SDS011;19550;42.872;25.494;2023-11-19T06:39:31;10.15;;;6.90;;
33184;SDS011;19550;42.872;25.494;2023-11-19T06:42:00;10.63;;;6.95;;
33184;SDS011;19550;42.872;25.494;2023-11-19T06:44:27;6.70;;;4.75;;
33184;SDS011;19550;42.872;25.494;2023-11-19T06:46:55;7.82;;;5.20;;
33184;SDS011;19550;42.872;25.494;2023-11-19T06:49:22;9.50;;;5.18;;
33184;SDS011;19550;42.872;25.494;2023-11-19T06:51:49;10.50;;;5.05;;
33184;SDS011;19550;42.872;25.494;2023-11-19T06:54:16;8.13;;;5.45;;
33184;SDS011;19550;42.872;25.494;2023-11-19T06:56:43;8.60;;;5.97;;
33184;SDS011;19550;42.872;25.494;2023-11-19T06:59:10;8.48;;;5.80;;
33184;SDS011;19550;42.872;25.494;2023-11-19T07:01:37;7.60;;;5.70;;
33184;SDS011;19550;42.872;25.494;2023-11-19T07:04:06;12.00;;;7.78;;
33184;SDS011;19550;42.872;25.494;2023-11-19T07:06:34;7.25;;;4.93;;
33184;SDS011;19550;42.872;25.494;2023-11-19T07:09:01;15.65;;;10.05;;
33184;SDS011;19550;42.872;25.494;2023-11-19T07:11:34;7.00;;;4.82;;
33184;SDS011;19550;42.872;25.494;2023-11-19T07:14:04;12.15;;;7.93;;
33184;SDS011;19550;42.872;25.494;2023-11-19T07:16:31;7.32;;;5.10;;
33184;SDS011;19550;42.872;25.494;2023-11-19T07:18:59;9.18;;;5.70;;
33184;SDS011;19550;42.872;25.494;2023-11-19T07:21:27;6.90;;;5.03;;
33184;SDS011;19550;42.872;25.494;2023-11-19T07:23:54;7.95;;;5.88;;
33184;SDS011;19550;42.872;25.494;2023-11-19T07:26:21;5.95;;;4.35;;
33184;SDS011;19550;42.872;25.494;2023-11-19T07:28:49;7.18;;;4.63;;
33184;SDS011;19550;42.872;25.494;2023-11-19T07:31:16;10.70;;;7.15;;
33184;SDS011;19550;42.872;25.494;2023-11-19T07:33:44;15.90;;;10.55;;
33184;SDS011;19550;42.872;25.494;2023-11-19T07:36:12;13.45;;;7.82;;
33184;SDS011;19550;42.872;25.494;2023-11-19T07:38:41;7.38;;;5.03;;
33184;SDS011;19550;42.872;25.494;2023-11-19T07:41:08;11.25;;;5.28;;
33184;SDS011;19550;42.872;25.494;2023-11-19T07:43:38;7.10;;;5.03;;
33184;SDS011;19550;42.872;25.494;2023-11-19T07:46:10;9.15;;;5.72;;
33184;SDS011;19550;42.872;25.494;2023-11-19T07:48:38;11.65;;;5.30;;
33184;SDS011;19550;42.872;25.494;2023-11-19T07:51:05;9.15;;;5.20;;
33184;SDS011;19550;42.872;25.494;2023-11-19T07:53:32;6.97;;;5.25;;
33184;SDS011;19550;42.872;25.494;2023-11-19T07:56:01;7.57;;;5.18;;
33184;SDS011;19550;42.872;25.494;2023-11-19T07:58:27;11.13;;;5.65;;
33184;SDS011;19550;42.872;25.494;2023-11-19T08:00:54;7.28;;;4.63;;
33184;SDS011;19550;42.872;25.494;2023-11-19T08:03:21;9.70;;;6.45;;
33184;SDS011;19550;42.872;25.494;2023-11-19T08:05:48;7.28;;;4.93;;
33184;SDS011;19550;42.872;25.494;2023-11-19T08:08:15;14.13;;;9.65;;
33184;SDS011;19550;42.872;25.494;2023-11-19T08:10:43;7.10;;;4.75;;
33184;SDS011;19550;42.872;25.494;2023-11-19T08:13:11;9.75;;;4.53;;
33184;SDS011;19550;42.872;25.494;2023-11-19T08:15:38;6.72;;;4.57;;
33184;SDS011;19550;42.872;25.494;2023-11-19T08:18:05;8.80;;;5.53;;
33184;SDS011;19550;42.872;25.494;2023-11-19T08:20:32;8.75;;;6.22;;
33184;SDS011;19550;42.872;25.494;2023-11-19T08:22:59;8.18;;;5.75;;
33184;SDS011;19550;42.872;25.494;2023-11-19T08:25:26;6.90;;;4.72;;
33184;SDS011;19550;42.872;25.494;2023-11-19T08:27:53;6.18;;;4.10;;
33184;SDS011;19550;42.872;25.494;2023-11-19T08:30:23;9.85;;;6.43;;
33184;SDS011;19550;42.872;25.494;2023-11-19T08:32:50;17.13;;;9.43;;
33184;SDS011;19550;42.872;25.494;2023-11-19T08:35:16;11.25;;;7.00;;
33184;SDS011;19550;42.872;25.494;2023-11-19T08:37:45;10.25;;;6.13;;
33184;SDS011;19550;42.872;25.494;2023-11-19T08:40:12;26.45;;;17.20;;
33184;SDS011;19550;42.872;25.494;2023-11-19T08:42:41;5.93;;;4.47;;
33184;SDS011;19550;42.872;25.494;2023-11-19T08:45:08;6.90;;;5.00;;
33184;SDS011;19550;42.872;25.494;2023-11-19T08:47:38;8.50;;;5.05;;
33184;SDS011;19550;42.872;25.494;2023-11-19T08:50:06;14.57;;;9.97;;
33184;SDS011;19550;42.872;25.494;2023-11-19T08:52:33;12.88;;;11.10;;
33184;SDS011;19550;42.872;25.494;2023-11-19T08:55:01;9.50;;;4.82;;
33184;SDS011;19550;42.872;25.494;2023-11-19T08:57:28;6.20;;;4.85;;
33184;SDS011;19550;42.872;25.494;2023-11-19T08:59:55;6.38;;;4.78;;
33184;SDS011;19550;42.872;25.494;2023-11-19T09:02:22;5.63;;;4.07;;
33184;SDS011;19550;42.872;25.494;2023-11-19T09:04:50;6.18;;;4.70;;
33184;SDS011;19550;42.872;25.494;2023-11-19T09:07:17;6.40;;;4.30;;
33184;SDS011;19550;42.872;25.494;2023-11-19T09:09:44;29.50;;;14.60;;
33184;SDS011;19550;42.872;25.494;2023-11-19T09:12:11;56.42;;;32.15;;
33184;SDS011;19550;42.872;25.494;2023-11-19T09:14:39;8.10;;;5.90;;
33184;SDS011;19550;42.872;25.494;2023-11-19T09:17:07;6.97;;;5.45;;
33184;SDS011;19550;42.872;25.494;2023-11-19T09:19:34;6.78;;;4.95;;
33184;SDS011;19550;42.872;25.494;2023-11-19T09:22:03;6.47;;;4.82;;
33184;SDS011;19550;42.872;25.494;2023-11-19T09:24:30;8.75;;;5.25;;
33184;SDS011;19550;42.872;25.494;2023-11-19T09:26:56;6.13;;;4.60;;
33184;SDS011;19550;42.872;25.494;2023-11-19T09:29:23;8.23;;;5.78;;
33184;SDS011;19550;42.872;25.494;2023-11-19T09:31:50;6.28;;;4.40;;
33184;SDS011;19550;42.872;25.494;2023-11-19T09:34:17;7.55;;;4.47;;
33184;SDS011;19550;42.872;25.494;2023-11-19T09:36:44;7.00;;;4.78;;
33184;SDS011;19550;42.872;25.494;2023-11-19T09:39:12;8.75;;;6.88;;
33184;SDS011;19550;42.872;25.494;2023-11-19T09:41:42;6.30;;;4.45;;
33184;SDS011;19550;42.872;25.494;2023-11-19T09:44:10;7.00;;;4.57;;
33184;SDS011;19550;42.872;25.494;2023-11-19T09:46:38;9.18;;;5.88;;
33184;SDS011;19550;42.872;25.494;2023-11-19T09:49:07;7.38;;;3.95;;
33184;SDS011;19550;42.872;25.494;2023-11-19T09:51:35;7.00;;;5.50;;
33184;SDS011;19550;42.872;25.494;2023-11-19T09:54:02;5.00;;;4.30;;
33184;SDS011;19550;42.872;25.494;2023-11-19T09:56:31;6.55;;;4.50;;
33184;SDS011;19550;42.872;25.494;2023-11-19T09:59:02;9.07;;;5.93;;
33184;SDS011;19550;42.872;25.494;2023-11-19T10:01:29;8.40;;;5.03;;
33184;SDS011;19550;42.872;25.494;2023-11-19T10:03:57;9.48;;;6.45;;
33184;SDS011;19550;42.872;25.494;2023-11-19T10:06:25;6.05;;;4.60;;
33184;SDS011;19550;42.872;25.494;2023-11-19T10:08:53;20.15;;;12.73;;
33184;SDS011;19550;42.872;25.494;2023-11-19T10:11:20;19.70;;;11.68;;
33184;SDS011;19550;42.872;25.494;2023-11-19T10:13:48;11.80;;;7.25;;
33184;SDS011;19550;42.872;25.494;2023-11-19T10:16:17;9.60;;;6.85;;
33184;SDS011;19550;42.872;25.494;2023-11-19T10:18:44;19.95;;;11.10;;
33184;SDS011;19550;42.872;25.494;2023-11-19T10:21:12;6.65;;;4.10;;
33184;SDS011;19550;42.872;25.494;2023-11-19T10:23:48;12.90;;;6.75;;
33184;SDS011;19550;42.872;25.494;2023-11-19T10:26:17;22.92;;;12.60;;
33184;SDS011;19550;42.872;25.494;2023-11-19T10:28:45;12.85;;;7.75;;
33184;SDS011;19550;42.872;25.494;2023-11-19T10:31:14;7.82;;;4.90;;
33184;SDS011;19550;42.872;25.494;2023-11-19T10:33:42;17.92;;;11.07;;
33184;SDS011;19550;42.872;25.494;2023-11-19T10:36:10;8.52;;;5.50;;
33184;SDS011;19550;42.872;25.494;2023-11-19T10:38:37;11.00;;;7.10;;
33184;SDS011;19550;42.872;25.494;2023-11-19T10:41:05;6.80;;;4.30;;
33184;SDS011;19550;42.872;25.494;2023-11-19T10:43:42;4.47;;;3.65;;
33184;SDS011;19550;42.872;25.494;2023-11-19T10:46:10;5.65;;;4.70;;
33184;SDS011;19550;42.872;25.494;2023-11-19T10:48:39;7.65;;;4.78;;
33184;SDS011;19550;42.872;25.494;2023-11-19T10:51:07;8.60;;;5.45;;
33184;SDS011;19550;42.872;25.494;2023-11-19T10:53:36;9.52;;;6.60;;
33184;SDS011;19550;42.872;25.494;2023-11-19T10:56:04;31.67;;;15.60;;
33184;SDS011;19550;42.872;25.494;2023-11-19T10:58:35;5.80;;;3.92;;
33184;SDS011;19550;42.872;25.494;2023-11-19T11:01:05;31.70;;;16.27;;
33184;SDS011;19550;42.872;25.494;2023-11-19T11:03:40;7.93;;;5.35;;
33184;SDS011;19550;42.872;25.494;2023-11-19T11:08:36;7.20;;;4.90;;
33184;SDS011;19550;42.872;25.494;2023-11-19T11:11:04;9.70;;;6.22;;
33184;SDS011;19550;42.872;25.494;2023-11-19T11:13:35;3.75;;;3.05;;
33184;SDS011;19550;42.872;25.494;2023-11-19T11:16:08;4.47;;;3.42;;
33184;SDS011;19550;42.872;25.494;2023-11-19T11:18:36;5.15;;;3.83;;
33184;SDS011;19550;42.872;25.494;2023-11-19T11:21:07;4.47;;;3.28;;
33184;SDS011;19550;42.872;25.494;2023-11-19T11:26:59;4.55;;;3.40;;
33184;SDS011;19550;42.872;25.494;2023-11-19T11:29:41;5.97;;;3.60;;
33184;SDS011;19550;42.872;25.494;2023-11-19T11:32:17;6.57;;;3.65;;
33184;SDS011;19550;42.872;25.494;2023-11-19T11:34:56;5.95;;;3.75;;
33184;SDS011;19550;42.872;25.494;2023-11-19T11:37:37;8.85;;;5.97;;
33184;SDS011;19550;42.872;25.494;2023-11-19T11:40:13;6.10;;;3.30;;
33184;SDS011;19550;42.872;25.494;2023-11-19T11:42:41;3.95;;;3.22;;
33184;SDS011;19550;42.872;25.494;2023-11-19T11:45:08;4.05;;;3.00;;
33184;SDS011;19550;42.872;25.494;2023-11-19T11:53:29;9.02;;;5.30;;
33184;SDS011;19550;42.872;25.494;2023-11-19T11:55:57;28.15;;;15.50;;
33184;SDS011;19550;42.872;25.494;2023-11-19T11:58:34;10.77;;;7.15;;
33184;SDS011;19550;42.872;25.494;2023-11-19T12:01:03;11.13;;;7.78;;
33184;SDS011;19550;42.872;25.494;2023-11-19T12:03:35;9.85;;;7.50;;
33184;SDS011;19550;42.872;25.494;2023-11-19T12:06:04;8.38;;;6.28;;
33184;SDS011;19550;42.872;25.494;2023-11-19T12:08:35;8.73;;;6.78;;
33184;SDS011;19550;42.872;25.494;2023-11-19T12:11:02;6.13;;;4.40;;
33184;SDS011;19550;42.872;25.494;2023-11-19T12:13:44;7.20;;;5.32;;
33184;SDS011;19550;42.872;25.494;2023-11-19T12:16:14;5.97;;;4.43;;
33184;SDS011;19550;42.872;25.494;2023-11-19T12:18:41;8.57;;;5.60;;
33184;SDS011;19550;42.872;25.494;2023-11-19T12:21:08;11.85;;;6.53;;
33184;SDS011;19550;42.872;25.494;2023-11-19T12:26:31;5.82;;;4.30;;
33184;SDS011;19550;42.872;25.494;2023-11-19T12:28:59;4.55;;;3.17;;
33184;SDS011;19550;42.872;25.494;2023-11-19T12:33:55;9.02;;;5.38;;
33184;SDS011;19550;42.872;25.494;2023-11-19T12:36:22;8.13;;;5.93;;
33184;SDS011;19550;42.872;25.494;2023-11-19T12:38:50;10.85;;;4.75;;
33184;SDS011;19550;42.872;25.494;2023-11-19T12:41:17;6.68;;;4.68;;
33184;SDS011;19550;42.872;25.494;2023-11-19T12:43:48;6.93;;;5.35;;
33184;SDS011;19550;42.872;25.494;2023-11-19T12:46:19;4.80;;;3.70;;
33184;SDS011;19550;42.872;25.494;2023-11-19T12:48:46;5.93;;;4.25;;
33184;SDS011;19550;42.872;25.494;2023-11-19T12:51:13;6.80;;;4.43;;
33184;SDS011;19550;42.872;25.494;2023-11-19T12:53:47;4.55;;;3.65;;
33184;SDS011;19550;42.872;25.494;2023-11-19T12:56:17;4.10;;;3.20;;
33184;SDS011;19550;42.872;25.494;2023-11-19T12:58:44;4.43;;;3.35;;
33184;SDS011;19550;42.872;25.494;2023-11-19T13:01:15;6.90;;;4.38;;
33184;SDS011;19550;42.872;25.494;2023-11-19T13:03:43;5.53;;;4.25;;
33184;SDS011;19550;42.872;25.494;2023-11-19T13:06:12;4.53;;;3.20;;
33184;SDS011;19550;42.872;25.494;2023-11-19T13:08:41;5.55;;;3.40;;
33184;SDS011;19550;42.872;25.494;2023-11-19T13:11:10;5.70;;;3.85;;
33184;SDS011;19550;42.872;25.494;2023-11-19T13:13:55;6.57;;;4.40;;
33184;SDS011;19550;42.872;25.494;2023-11-19T13:16:23;8.10;;;6.00;;
33184;SDS011;19550;42.872;25.494;2023-11-19T13:18:50;4.28;;;2.85;;
33184;SDS011;19550;42.872;25.494;2023-11-19T13:21:17;37.08;;;33.38;;
33184;SDS011;19550;42.872;25.494;2023-11-19T13:23:45;6.40;;;3.80;;
33184;SDS011;19550;42.872;25.494;2023-11-19T13:26:12;15.13;;;9.63;;
33184;SDS011;19550;42.872;25.494;2023-11-19T13:28:39;12.50;;;7.20;;
33184;SDS011;19550;42.872;25.494;2023-11-19T13:31:07;15.65;;;10.45;;
33184;SDS011;19550;42.872;25.494;2023-11-19T13:33:35;9.00;;;6.50;;
33184;SDS011;19550;42.872;25.494;2023-11-19T13:36:02;3.88;;;3.20;;
33184;SDS011;19550;42.872;25.494;2023-11-19T13:38:31;4.60;;;3.22;;
33184;SDS011;19550;42.872;25.494;2023-11-19T13:40:58;6.45;;;4.93;;
33184;SDS011;19550;42.872;25.494;2023-11-19T13:43:25;5.25;;;3.22;;
33184;SDS011;19550;42.872;25.494;2023-11-19T13:45:53;5.43;;;3.92;;
33184;SDS011;19550;42.872;25.494;2023-11-19T13:48:22;3.90;;;2.92;;
33184;SDS011;19550;42.872;25.494;2023-11-19T13:50:49;57.00;;;25.90;;
33184;SDS011;19550;42.872;25.494;2023-11-19T13:53:16;34.92;;;17.92;;
33184;SDS011;19550;42.872;25.494;2023-11-19T13:55:42;16.92;;;9.05;;
33184;SDS011;19550;42.872;25.494;2023-11-19T13:58:09;5.57;;;3.28;;
33184;SDS011;19550;42.872;25.494;2023-11-19T14:00:37;50.88;;;25.00;;
33184;SDS011;19550;42.872;25.494;2023-11-19T14:03:04;11.05;;;6.75;;
33184;SDS011;19550;42.872;25.494;2023-11-19T14:05:33;5.82;;;4.18;;
33184;SDS011;19550;42.872;25.494;2023-11-19T14:08:00;7.22;;;4.05;;
33184;SDS011;19550;42.872;25.494;2023-11-19T14:10:26;19.73;;;9.65;;
33184;SDS011;19550;42.872;25.494;2023-11-19T14:12:53;24.25;;;10.82;;
33184;SDS011;19550;42.872;25.494;2023-11-19T14:15:21;5.15;;;3.40;;
33184;SDS011;19550;42.872;25.494;2023-11-19T14:17:48;25.23;;;11.55;;
33184;SDS011;19550;42.872;25.494;2023-11-19T14:20:15;10.73;;;5.40;;
33184;SDS011;19550;42.872;25.494;2023-11-19T14:22:44;5.53;;;3.30;;
33184;SDS011;19550;42.872;25.494;2023-11-19T14:25:14;135.32;;;50.33;;
33184;SDS011;19550;42.872;25.494;2023-11-19T14:27:42;50.00;;;20.95;;
33184;SDS011;19550;42.872;25.494;2023-11-19T14:30:11;271.30;;;129.80;;
33184;SDS011;19550;42.872;25.494;2023-11-19T14:32:40;249.73;;;119.25;;
33184;SDS011;19550;42.872;25.494;2023-11-19T14:35:09;41.88;;;21.50;;
33184;SDS011;19550;42.872;25.494;2023-11-19T14:37:36;173.05;;;69.95;;
33184;SDS011;19550;42.872;25.494;2023-11-19T14:40:04;405.38;;;183.73;;
33184;SDS011;19550;42.872;25.494;2023-11-19T14:42:34;439.58;;;191.02;;
33184;SDS011;19550;42.872;25.494;2023-11-19T14:45:00;490.30;;;233.45;;
33184;SDS011;19550;42.872;25.494;2023-11-19T14:47:27;485.55;;;211.82;;
33184;SDS011;19550;42.872;25.494;2023-11-19T14:49:55;376.52;;;211.10;;
33184;SDS011;19550;42.872;25.494;2023-11-19T14:52:22;93.72;;;54.85;;
33184;SDS011;19550;42.872;25.494;2023-11-19T14:54:49;199.45;;;96.72;;